sensor_id;sensor_type;location;lat;lon;timestamp;temperature;humidity
21047;DHT22;10682;50.874;3.656;2022-12-07T00:01:25;4.80;99.90
21047;DHT22;10682;50.874;3.656;2022-12-07T00:03:55;4.90;99.90
21047;DHT22;10682;50.874;3.656;2022-12-07T00:06:39;4.90;99.90
21047;DHT22;10682;50.874;3.656;2022-12-07T00:09:13;4.90;99.90
21047;DHT22;10682;50.874;3.656;2022-12-07T00:11:43;4.90;99.90
21047;DHT22;10682;50.874;3.656;2022-12-07T00:14:13;4.90;99.90
21047;DHT22;10682;50.874;3.656;2022-12-07T00:16:41;4.80;99.90
21047;DHT22;10682;50.874;3.656;2022-12-07T00:19:11;4.90;99.90
21047;DHT22;10682;50.874;3.656;2022-12-07T00:21:39;4.90;99.90
21047;DHT22;10682;50.874;3.656;2022-12-07T00:24:07;4.80;99.90
21047;DHT22;10682;50.874;3.656;2022-12-07T00:26:36;4.80;99.90
21047;DHT22;10682;50.874;3.656;2022-12-07T00:29:14;4.80;99.90
21047;DHT22;10682;50.874;3.656;2022-12-07T00:31:43;4.80;99.90
21047;DHT22;10682;50.874;3.656;2022-12-07T00:34:16;4.70;99.90
21047;DHT22;10682;50.874;3.656;2022-12-07T00:36:47;4.70;99.90
21047;DHT22;10682;50.874;3.656;2022-12-07T00:39:15;4.60;99.90
21047;DHT22;10682;50.874;3.656;2022-12-07T00:41:42;4.60;99.90
21047;DHT22;10682;50.874;3.656;2022-12-07T00:44:09;4.60;99.90
21047;DHT22;10682;50.874;3.656;2022-12-07T00:46:36;4.60;99.90
21047;DHT22;10682;50.874;3.656;2022-12-07T00:49:04;4.60;99.90
21047;DHT22;10682;50.874;3.656;2022-12-07T00:51:30;4.60;99.90
21047;DHT22;10682;50.874;3.656;2022-12-07T00:53:57;4.60;99.90
21047;DHT22;10682;50.874;3.656;2022-12-07T00:56:27;4.60;99.90
21047;DHT22;10682;50.874;3.656;2022-12-07T00:58:56;4.50;99.90
21047;DHT22;10682;50.874;3.656;2022-12-07T01:01:28;4.60;99.90
21047;DHT22;10682;50.874;3.656;2022-12-07T01:03:56;4.60;99.90
21047;DHT22;10682;50.874;3.656;2022-12-07T01:06:25;4.60;99.90
21047;DHT22;10682;50.874;3.656;2022-12-07T01:08:53;4.50;99.90
21047;DHT22;10682;50.874;3.656;2022-12-07T01:11:22;4.50;99.90
21047;DHT22;10682;50.874;3.656;2022-12-07T01:13:52;4.50;99.90
21047;DHT22;10682;50.874;3.656;2022-12-07T01:16:21;4.50;99.90
21047;DHT22;10682;50.874;3.656;2022-12-07T01:18:50;4.40;99.90
21047;DHT22;10682;50.874;3.656;2022-12-07T01:21:24;4.40;99.90
21047;DHT22;10682;50.874;3.656;2022-12-07T01:23:59;4.30;99.90
21047;DHT22;10682;50.874;3.656;2022-12-07T01:26:26;4.20;99.90
21047;DHT22;10682;50.874;3.656;2022-12-07T01:28:54;4.20;99.90
21047;DHT22;10682;50.874;3.656;2022-12-07T01:31:23;4.10;99.90
21047;DHT22;10682;50.874;3.656;2022-12-07T01:33:54;4.10;99.90
21047;DHT22;10682;50.874;3.656;2022-12-07T01:36:31;4.00;99.90
21047;DHT22;10682;50.874;3.656;2022-12-07T01:39:03;4.00;99.90
21047;DHT22;10682;50.874;3.656;2022-12-07T01:41:35;4.00;99.90
21047;DHT22;10682;50.874;3.656;2022-12-07T01:47:40;3.90;99.90
21047;DHT22;10682;50.874;3.656;2022-12-07T01:50:08;3.90;99.90
21047;DHT22;10682;50.874;3.656;2022-12-07T01:52:36;3.80;99.90
21047;DHT22;10682;50.874;3.656;2022-12-07T01:55:07;3.80;99.90
21047;DHT22;10682;50.874;3.656;2022-12-07T01:57:41;3.90;99.90
21047;DHT22;10682;50.874;3.656;2022-12-07T02:00:11;4.00;99.90
21047;DHT22;10682;50.874;3.656;2022-12-07T02:05:35;4.00;99.90
21047;DHT22;10682;50.874;3.656;2022-12-07T02:08:04;4.00;99.90
21047;DHT22;10682;50.874;3.656;2022-12-07T02:10:32;4.00;99.90
21047;DHT22;10682;50.874;3.656;2022-12-07T02:19:24;4.00;99.90
21047;DHT22;10682;50.874;3.656;2022-12-07T02:22:08;4.10;99.90
21047;DHT22;10682;50.874;3.656;2022-12-07T02:24:59;4.10;99.90
21047;DHT22;10682;50.874;3.656;2022-12-07T02:30:12;4.10;99.90
21047;DHT22;10682;50.874;3.656;2022-12-07T02:35:50;4.00;99.90
21047;DHT22;10682;50.874;3.656;2022-12-07T02:41:35;4.00;99.90
21047;DHT22;10682;50.874;3.656;2022-12-07T02:44:07;3.90;99.90
21047;DHT22;10682;50.874;3.656;2022-12-07T02:46:46;3.90;99.90
21047;DHT22;10682;50.874;3.656;2022-12-07T02:49:17;3.90;99.90
21047;DHT22;10682;50.874;3.656;2022-12-07T02:51:46;3.90;99.90
21047;DHT22;10682;50.874;3.656;2022-12-07T02:54:15;3.80;99.90
21047;DHT22;10682;50.874;3.656;2022-12-07T02:59:46;3.80;99.90
21047;DHT22;10682;50.874;3.656;2022-12-07T03:02:53;3.80;99.90
21047;DHT22;10682;50.874;3.656;2022-12-07T03:05:42;3.80;99.90
21047;DHT22;10682;50.874;3.656;2022-12-07T03:08:36;3.80;99.90
21047;DHT22;10682;50.874;3.656;2022-12-07T03:11:41;3.80;99.90
21047;DHT22;10682;50.874;3.656;2022-12-07T03:14:23;3.90;99.90
21047;DHT22;10682;50.874;3.656;2022-12-07T03:17:05;3.90;99.90
21047;DHT22;10682;50.874;3.656;2022-12-07T03:19:39;4.00;99.90
21047;DHT22;10682;50.874;3.656;2022-12-07T03:22:12;4.00;99.90
21047;DHT22;10682;50.874;3.656;2022-12-07T03:24:45;4.10;99.90
21047;DHT22;10682;50.874;3.656;2022-12-07T03:27:26;4.10;99.90
21047;DHT22;10682;50.874;3.656;2022-12-07T03:30:07;4.10;99.90
21047;DHT22;10682;50.874;3.656;2022-12-07T03:32:45;4.10;99.90
21047;DHT22;10682;50.874;3.656;2022-12-07T03:35:52;4.10;99.90
21047;DHT22;10682;50.874;3.656;2022-12-07T03:39:18;4.10;99.90
21047;DHT22;10682;50.874;3.656;2022-12-07T03:41:50;4.10;99.90
21047;DHT22;10682;50.874;3.656;2022-12-07T03:44:18;4.10;99.90
21047;DHT22;10682;50.874;3.656;2022-12-07T03:47:05;4.00;99.90
21047;DHT22;10682;50.874;3.656;2022-12-07T03:49:43;4.00;99.90
21047;DHT22;10682;50.874;3.656;2022-12-07T03:52:40;4.00;99.90
21047;DHT22;10682;50.874;3.656;2022-12-07T03:55:16;4.00;99.90
21047;DHT22;10682;50.874;3.656;2022-12-07T03:57:50;4.10;99.90
21047;DHT22;10682;50.874;3.656;2022-12-07T04:00:18;4.00;99.90
21047;DHT22;10682;50.874;3.656;2022-12-07T04:02:46;4.00;99.90
21047;DHT22;10682;50.874;3.656;2022-12-07T04:05:13;4.00;99.90
21047;DHT22;10682;50.874;3.656;2022-12-07T04:07:41;4.00;99.90
21047;DHT22;10682;50.874;3.656;2022-12-07T04:10:08;4.00;99.90
21047;DHT22;10682;50.874;3.656;2022-12-07T04:12:36;4.00;99.90
21047;DHT22;10682;50.874;3.656;2022-12-07T04:15:04;4.00;99.90
21047;DHT22;10682;50.874;3.656;2022-12-07T04:17:31;4.00;99.90
21047;DHT22;10682;50.874;3.656;2022-12-07T04:19:58;3.90;99.90
21047;DHT22;10682;50.874;3.656;2022-12-07T04:22:26;3.90;99.90
21047;DHT22;10682;50.874;3.656;2022-12-07T04:24:53;3.90;99.90
21047;DHT22;10682;50.874;3.656;2022-12-07T04:27:20;3.90;99.90
21047;DHT22;10682;50.874;3.656;2022-12-07T04:29:47;3.90;99.90
21047;DHT22;10682;50.874;3.656;2022-12-07T04:32:14;3.90;99.90
21047;DHT22;10682;50.874;3.656;2022-12-07T04:34:41;3.90;99.90
21047;DHT22;10682;50.874;3.656;2022-12-07T04:37:08;3.80;99.90
21047;DHT22;10682;50.874;3.656;2022-12-07T04:39:35;3.80;99.90
21047;DHT22;10682;50.874;3.656;2022-12-07T04:42:02;3.80;99.90
21047;DHT22;10682;50.874;3.656;2022-12-07T04:44:30;3.70;99.90
21047;DHT22;10682;50.874;3.656;2022-12-07T04:46:57;3.60;99.90
21047;DHT22;10682;50.874;3.656;2022-12-07T04:49:25;3.60;99.90
21047;DHT22;10682;50.874;3.656;2022-12-07T04:51:52;3.50;99.90
21047;DHT22;10682;50.874;3.656;2022-12-07T04:54:19;3.50;99.90
21047;DHT22;10682;50.874;3.656;2022-12-07T04:56:46;3.50;99.90
21047;DHT22;10682;50.874;3.656;2022-12-07T04:59:15;3.40;99.90
21047;DHT22;10682;50.874;3.656;2022-12-07T05:01:43;3.40;99.90
21047;DHT22;10682;50.874;3.656;2022-12-07T05:04:10;3.40;99.90
21047;DHT22;10682;50.874;3.656;2022-12-07T05:06:37;3.40;99.90
21047;DHT22;10682;50.874;3.656;2022-12-07T05:09:05;3.40;99.90
21047;DHT22;10682;50.874;3.656;2022-12-07T05:11:32;3.40;99.90
21047;DHT22;10682;50.874;3.656;2022-12-07T05:14:08;3.50;99.90
21047;DHT22;10682;50.874;3.656;2022-12-07T05:16:41;3.50;99.90
21047;DHT22;10682;50.874;3.656;2022-12-07T05:19:09;3.60;99.90
21047;DHT22;10682;50.874;3.656;2022-12-07T05:21:38;3.60;99.90
21047;DHT22;10682;50.874;3.656;2022-12-07T05:24:06;3.60;99.90
21047;DHT22;10682;50.874;3.656;2022-12-07T05:26:34;3.70;99.90
21047;DHT22;10682;50.874;3.656;2022-12-07T05:29:01;3.70;99.90
21047;DHT22;10682;50.874;3.656;2022-12-07T05:31:29;3.80;99.90
21047;DHT22;10682;50.874;3.656;2022-12-07T05:33:56;3.80;99.90
21047;DHT22;10682;50.874;3.656;2022-12-07T05:36:23;3.70;99.90
21047;DHT22;10682;50.874;3.656;2022-12-07T05:38:50;3.70;99.90
21047;DHT22;10682;50.874;3.656;2022-12-07T05:41:18;3.80;99.90
21047;DHT22;10682;50.874;3.656;2022-12-07T05:44:05;3.80;99.90
21047;DHT22;10682;50.874;3.656;2022-12-07T05:46:32;3.80;99.90
21047;DHT22;10682;50.874;3.656;2022-12-07T05:48:59;3.80;99.90
21047;DHT22;10682;50.874;3.656;2022-12-07T05:51:27;3.80;99.90
21047;DHT22;10682;50.874;3.656;2022-12-07T05:53:54;3.80;99.90
21047;DHT22;10682;50.874;3.656;2022-12-07T05:56:21;3.80;99.90
21047;DHT22;10682;50.874;3.656;2022-12-07T05:58:48;3.80;99.90
21047;DHT22;10682;50.874;3.656;2022-12-07T06:01:33;3.70;99.90
21047;DHT22;10682;50.874;3.656;2022-12-07T06:04:00;3.70;99.90
21047;DHT22;10682;50.874;3.656;2022-12-07T06:06:27;3.60;99.90
21047;DHT22;10682;50.874;3.656;2022-12-07T06:08:54;3.60;99.90
21047;DHT22;10682;50.874;3.656;2022-12-07T06:11:21;3.50;99.90
21047;DHT22;10682;50.874;3.656;2022-12-07T06:14:07;3.50;99.90
21047;DHT22;10682;50.874;3.656;2022-12-07T06:16:34;3.40;99.90
21047;DHT22;10682;50.874;3.656;2022-12-07T06:19:01;3.40;99.90
21047;DHT22;10682;50.874;3.656;2022-12-07T06:21:28;3.30;99.90
21047;DHT22;10682;50.874;3.656;2022-12-07T06:23:55;3.30;99.90
21047;DHT22;10682;50.874;3.656;2022-12-07T06:26:22;3.30;99.90
21047;DHT22;10682;50.874;3.656;2022-12-07T06:28:49;3.30;99.90
21047;DHT22;10682;50.874;3.656;2022-12-07T06:31:16;3.30;99.90
21047;DHT22;10682;50.874;3.656;2022-12-07T06:33:43;3.40;99.90
21047;DHT22;10682;50.874;3.656;2022-12-07T06:36:10;3.40;99.90
21047;DHT22;10682;50.874;3.656;2022-12-07T06:38:38;3.40;99.90
21047;DHT22;10682;50.874;3.656;2022-12-07T06:41:05;3.40;99.90
21047;DHT22;10682;50.874;3.656;2022-12-07T06:43:33;3.50;99.90
21047;DHT22;10682;50.874;3.656;2022-12-07T06:46:00;3.50;99.90
21047;DHT22;10682;50.874;3.656;2022-12-07T06:48:27;3.60;99.90
21047;DHT22;10682;50.874;3.656;2022-12-07T06:50:54;3.60;99.90
21047;DHT22;10682;50.874;3.656;2022-12-07T06:53:22;3.50;99.90
21047;DHT22;10682;50.874;3.656;2022-12-07T06:55:49;3.50;99.90
21047;DHT22;10682;50.874;3.656;2022-12-07T06:58:17;3.50;99.90
21047;DHT22;10682;50.874;3.656;2022-12-07T07:00:45;3.40;99.90
21047;DHT22;10682;50.874;3.656;2022-12-07T07:03:12;3.40;99.90
21047;DHT22;10682;50.874;3.656;2022-12-07T07:05:39;3.40;99.90
21047;DHT22;10682;50.874;3.656;2022-12-07T07:08:07;3.40;99.90
21047;DHT22;10682;50.874;3.656;2022-12-07T07:10:50;3.40;99.90
21047;DHT22;10682;50.874;3.656;2022-12-07T07:13:17;3.40;99.90
21047;DHT22;10682;50.874;3.656;2022-12-07T07:15:44;3.50;99.90
21047;DHT22;10682;50.874;3.656;2022-12-07T07:18:11;3.50;99.90
21047;DHT22;10682;50.874;3.656;2022-12-07T07:20:39;3.50;99.90
21047;DHT22;10682;50.874;3.656;2022-12-07T07:23:07;3.60;99.90
21047;DHT22;10682;50.874;3.656;2022-12-07T07:25:34;3.60;99.90
21047;DHT22;10682;50.874;3.656;2022-12-07T07:28:02;3.60;99.90
21047;DHT22;10682;50.874;3.656;2022-12-07T07:30:29;3.70;99.90
21047;DHT22;10682;50.874;3.656;2022-12-07T07:33:00;3.70;99.90
21047;DHT22;10682;50.874;3.656;2022-12-07T07:35:30;3.80;99.90
21047;DHT22;10682;50.874;3.656;2022-12-07T07:37:57;3.90;99.90
21047;DHT22;10682;50.874;3.656;2022-12-07T07:40:25;4.00;99.90
21047;DHT22;10682;50.874;3.656;2022-12-07T07:42:54;4.10;99.90
21047;DHT22;10682;50.874;3.656;2022-12-07T07:45:23;4.20;99.90
21047;DHT22;10682;50.874;3.656;2022-12-07T07:47:51;4.10;99.90
21047;DHT22;10682;50.874;3.656;2022-12-07T07:50:18;4.10;99.90
21047;DHT22;10682;50.874;3.656;2022-12-07T07:52:46;4.20;99.90
21047;DHT22;10682;50.874;3.656;2022-12-07T07:55:13;4.20;99.90
21047;DHT22;10682;50.874;3.656;2022-12-07T07:57:40;4.20;99.90
21047;DHT22;10682;50.874;3.656;2022-12-07T08:00:10;4.20;99.90
21047;DHT22;10682;50.874;3.656;2022-12-07T08:02:39;4.20;99.90
21047;DHT22;10682;50.874;3.656;2022-12-07T08:05:07;4.20;99.90
21047;DHT22;10682;50.874;3.656;2022-12-07T08:07:35;4.30;99.90
21047;DHT22;10682;50.874;3.656;2022-12-07T08:10:02;4.40;99.90
21047;DHT22;10682;50.874;3.656;2022-12-07T08:12:30;4.40;99.90
21047;DHT22;10682;50.874;3.656;2022-12-07T08:14:57;4.50;99.90
21047;DHT22;10682;50.874;3.656;2022-12-07T08:17:24;4.50;99.90
21047;DHT22;10682;50.874;3.656;2022-12-07T08:19:51;4.60;99.90
21047;DHT22;10682;50.874;3.656;2022-12-07T08:22:18;4.60;99.90
21047;DHT22;10682;50.874;3.656;2022-12-07T08:24:45;4.70;99.90
21047;DHT22;10682;50.874;3.656;2022-12-07T08:27:12;4.70;99.90
21047;DHT22;10682;50.874;3.656;2022-12-07T08:29:39;4.80;99.90
21047;DHT22;10682;50.874;3.656;2022-12-07T08:32:06;4.80;99.90
21047;DHT22;10682;50.874;3.656;2022-12-07T08:34:35;4.80;99.90
21047;DHT22;10682;50.874;3.656;2022-12-07T08:37:03;4.90;99.90
21047;DHT22;10682;50.874;3.656;2022-12-07T08:39:30;4.90;99.90
21047;DHT22;10682;50.874;3.656;2022-12-07T08:41:58;5.00;99.90
21047;DHT22;10682;50.874;3.656;2022-12-07T08:44:25;5.00;99.90
21047;DHT22;10682;50.874;3.656;2022-12-07T08:46:57;5.00;99.90
21047;DHT22;10682;50.874;3.656;2022-12-07T08:49:41;5.00;99.90
21047;DHT22;10682;50.874;3.656;2022-12-07T08:52:10;5.00;99.90
21047;DHT22;10682;50.874;3.656;2022-12-07T08:54:39;5.10;99.90
21047;DHT22;10682;50.874;3.656;2022-12-07T08:57:07;5.10;99.90
21047;DHT22;10682;50.874;3.656;2022-12-07T08:59:36;5.20;99.90
21047;DHT22;10682;50.874;3.656;2022-12-07T09:02:05;5.20;99.90
21047;DHT22;10682;50.874;3.656;2022-12-07T09:04:32;5.20;99.90
21047;DHT22;10682;50.874;3.656;2022-12-07T09:06:59;5.20;99.90
21047;DHT22;10682;50.874;3.656;2022-12-07T09:09:26;5.20;99.90
21047;DHT22;10682;50.874;3.656;2022-12-07T09:11:53;5.20;99.90
21047;DHT22;10682;50.874;3.656;2022-12-07T09:14:20;5.20;99.90
21047;DHT22;10682;50.874;3.656;2022-12-07T09:16:48;5.20;99.90
21047;DHT22;10682;50.874;3.656;2022-12-07T09:19:15;5.30;99.90
21047;DHT22;10682;50.874;3.656;2022-12-07T09:21:42;5.30;99.90
21047;DHT22;10682;50.874;3.656;2022-12-07T09:24:09;5.30;99.90
21047;DHT22;10682;50.874;3.656;2022-12-07T09:26:36;5.30;99.90
21047;DHT22;10682;50.874;3.656;2022-12-07T09:29:04;5.40;99.90
21047;DHT22;10682;50.874;3.656;2022-12-07T09:31:31;5.40;99.90
21047;DHT22;10682;50.874;3.656;2022-12-07T09:34:00;5.40;99.90
21047;DHT22;10682;50.874;3.656;2022-12-07T09:36:28;5.40;99.90
21047;DHT22;10682;50.874;3.656;2022-12-07T09:38:55;5.30;99.90
21047;DHT22;10682;50.874;3.656;2022-12-07T09:41:24;5.30;99.90
21047;DHT22;10682;50.874;3.656;2022-12-07T09:43:53;5.30;99.90
21047;DHT22;10682;50.874;3.656;2022-12-07T09:46:38;5.30;99.90
21047;DHT22;10682;50.874;3.656;2022-12-07T09:49:12;5.30;99.90
21047;DHT22;10682;50.874;3.656;2022-12-07T09:51:42;5.40;99.90
21047;DHT22;10682;50.874;3.656;2022-12-07T09:54:13;5.30;99.90
21047;DHT22;10682;50.874;3.656;2022-12-07T09:56:42;5.40;99.90
21047;DHT22;10682;50.874;3.656;2022-12-07T09:59:15;5.40;99.90
21047;DHT22;10682;50.874;3.656;2022-12-07T10:01:49;5.50;99.90
21047;DHT22;10682;50.874;3.656;2022-12-07T10:04:20;5.60;99.90
21047;DHT22;10682;50.874;3.656;2022-12-07T10:06:48;5.80;99.90
21047;DHT22;10682;50.874;3.656;2022-12-07T10:09:20;6.00;99.90
21047;DHT22;10682;50.874;3.656;2022-12-07T10:14:39;6.70;99.90
21047;DHT22;10682;50.874;3.656;2022-12-07T10:17:38;6.80;99.90
21047;DHT22;10682;50.874;3.656;2022-12-07T10:22:58;6.70;99.90
21047;DHT22;10682;50.874;3.656;2022-12-07T10:25:29;6.80;99.90
21047;DHT22;10682;50.874;3.656;2022-12-07T10:28:15;6.90;99.90
21047;DHT22;10682;50.874;3.656;2022-12-07T10:33:31;6.90;99.90
21047;DHT22;10682;50.874;3.656;2022-12-07T10:36:14;6.90;99.90
21047;DHT22;10682;50.874;3.656;2022-12-07T10:38:47;6.80;99.90
21047;DHT22;10682;50.874;3.656;2022-12-07T10:41:16;6.80;99.90
21047;DHT22;10682;50.874;3.656;2022-12-07T10:43:54;6.80;99.90
21047;DHT22;10682;50.874;3.656;2022-12-07T10:47:14;6.80;99.90
21047;DHT22;10682;50.874;3.656;2022-12-07T10:55:23;7.00;99.90
21047;DHT22;10682;50.874;3.656;2022-12-07T11:00:51;7.20;99.90
21047;DHT22;10682;50.874;3.656;2022-12-07T11:06:39;7.10;99.90
21047;DHT22;10682;50.874;3.656;2022-12-07T11:21:30;6.70;99.90
21047;DHT22;10682;50.874;3.656;2022-12-07T11:24:43;6.70;99.90
21047;DHT22;10682;50.874;3.656;2022-12-07T11:27:37;6.80;99.90
21047;DHT22;10682;50.874;3.656;2022-12-07T11:38:15;6.90;99.90
21047;DHT22;10682;50.874;3.656;2022-12-07T11:40:55;6.90;99.90
21047;DHT22;10682;50.874;3.656;2022-12-07T11:44:07;7.00;99.90
21047;DHT22;10682;50.874;3.656;2022-12-07T11:46:49;6.90;99.90
21047;DHT22;10682;50.874;3.656;2022-12-07T11:49:48;7.00;99.90
21047;DHT22;10682;50.874;3.656;2022-12-07T11:52:47;7.10;99.90
21047;DHT22;10682;50.874;3.656;2022-12-07T12:06:38;7.70;99.90
21047;DHT22;10682;50.874;3.656;2022-12-07T12:09:18;7.80;99.90
21047;DHT22;10682;50.874;3.656;2022-12-07T12:12:36;7.80;99.90
21047;DHT22;10682;50.874;3.656;2022-12-07T12:16:15;7.70;99.90
21047;DHT22;10682;50.874;3.656;2022-12-07T12:21:31;7.80;99.90
21047;DHT22;10682;50.874;3.656;2022-12-07T12:26:37;8.60;99.90
21047;DHT22;10682;50.874;3.656;2022-12-07T12:29:28;8.90;99.90
21047;DHT22;10682;50.874;3.656;2022-12-07T12:35:28;8.60;99.90
21047;DHT22;10682;50.874;3.656;2022-12-07T12:38:31;8.40;99.90
21047;DHT22;10682;50.874;3.656;2022-12-07T12:41:01;8.10;99.90
21047;DHT22;10682;50.874;3.656;2022-12-07T12:43:49;7.90;99.90
21047;DHT22;10682;50.874;3.656;2022-12-07T12:54:21;7.60;99.90
21047;DHT22;10682;50.874;3.656;2022-12-07T12:59:36;7.60;99.90
21047;DHT22;10682;50.874;3.656;2022-12-07T13:02:30;7.40;99.90
21047;DHT22;10682;50.874;3.656;2022-12-07T13:18:45;6.50;99.90
21047;DHT22;10682;50.874;3.656;2022-12-07T13:26:38;6.40;99.90
21047;DHT22;10682;50.874;3.656;2022-12-07T13:36:57;6.50;99.90
21047;DHT22;10682;50.874;3.656;2022-12-07T13:39:26;6.50;99.90
21047;DHT22;10682;50.874;3.656;2022-12-07T13:41:55;6.50;99.90
21047;DHT22;10682;50.874;3.656;2022-12-07T13:44:25;6.60;99.90
21047;DHT22;10682;50.874;3.656;2022-12-07T13:47:00;6.60;99.90
21047;DHT22;10682;50.874;3.656;2022-12-07T13:49:38;6.60;99.90
21047;DHT22;10682;50.874;3.656;2022-12-07T13:52:20;6.70;99.90
21047;DHT22;10682;50.874;3.656;2022-12-07T13:54:56;6.70;99.90
21047;DHT22;10682;50.874;3.656;2022-12-07T13:57:29;6.70;99.90
21047;DHT22;10682;50.874;3.656;2022-12-07T13:59:58;6.60;99.90
21047;DHT22;10682;50.874;3.656;2022-12-07T14:02:30;6.60;99.90
21047;DHT22;10682;50.874;3.656;2022-12-07T14:05:15;6.60;99.90
21047;DHT22;10682;50.874;3.656;2022-12-07T14:07:57;6.50;99.90
21047;DHT22;10682;50.874;3.656;2022-12-07T14:10:36;6.50;99.90
21047;DHT22;10682;50.874;3.656;2022-12-07T14:13:33;6.40;99.90
21047;DHT22;10682;50.874;3.656;2022-12-07T14:16:28;6.40;99.90
21047;DHT22;10682;50.874;3.656;2022-12-07T14:19:03;6.30;99.90
21047;DHT22;10682;50.874;3.656;2022-12-07T14:21:33;6.30;99.90
21047;DHT22;10682;50.874;3.656;2022-12-07T14:24:19;6.20;99.90
21047;DHT22;10682;50.874;3.656;2022-12-07T14:26:48;6.30;99.90
21047;DHT22;10682;50.874;3.656;2022-12-07T14:31:49;6.20;99.90
21047;DHT22;10682;50.874;3.656;2022-12-07T14:34:16;6.20;99.90
21047;DHT22;10682;50.874;3.656;2022-12-07T14:36:43;6.20;99.90
21047;DHT22;10682;50.874;3.656;2022-12-07T14:39:10;6.20;99.90
21047;DHT22;10682;50.874;3.656;2022-12-07T14:41:39;6.20;99.90
21047;DHT22;10682;50.874;3.656;2022-12-07T14:44:22;6.20;99.90
21047;DHT22;10682;50.874;3.656;2022-12-07T14:46:55;6.30;99.90
21047;DHT22;10682;50.874;3.656;2022-12-07T14:49:42;6.20;99.90
21047;DHT22;10682;50.874;3.656;2022-12-07T14:52:21;6.30;99.90
21047;DHT22;10682;50.874;3.656;2022-12-07T14:57:54;6.20;99.90
21047;DHT22;10682;50.874;3.656;2022-12-07T15:00:24;6.20;99.90
21047;DHT22;10682;50.874;3.656;2022-12-07T15:02:52;6.10;99.90
21047;DHT22;10682;50.874;3.656;2022-12-07T15:05:19;6.10;99.90
21047;DHT22;10682;50.874;3.656;2022-12-07T15:07:47;6.10;99.90
21047;DHT22;10682;50.874;3.656;2022-12-07T15:10:26;6.10;99.90
21047;DHT22;10682;50.874;3.656;2022-12-07T15:13:00;6.00;99.90
21047;DHT22;10682;50.874;3.656;2022-12-07T15:15:48;6.00;99.90
21047;DHT22;10682;50.874;3.656;2022-12-07T15:18:17;5.90;99.90
21047;DHT22;10682;50.874;3.656;2022-12-07T15:20:45;5.80;99.90
21047;DHT22;10682;50.874;3.656;2022-12-07T15:23:13;5.80;99.90
21047;DHT22;10682;50.874;3.656;2022-12-07T15:25:41;5.70;99.90
21047;DHT22;10682;50.874;3.656;2022-12-07T15:28:09;5.70;99.90
21047;DHT22;10682;50.874;3.656;2022-12-07T15:30:40;5.70;99.90
21047;DHT22;10682;50.874;3.656;2022-12-07T15:33:10;5.70;99.90
21047;DHT22;10682;50.874;3.656;2022-12-07T15:35:41;5.80;99.90
21047;DHT22;10682;50.874;3.656;2022-12-07T15:38:09;5.80;99.90
21047;DHT22;10682;50.874;3.656;2022-12-07T15:40:36;5.80;99.90
21047;DHT22;10682;50.874;3.656;2022-12-07T15:43:04;5.80;99.90
21047;DHT22;10682;50.874;3.656;2022-12-07T15:45:31;5.80;99.90
21047;DHT22;10682;50.874;3.656;2022-12-07T15:47:58;5.80;99.90
21047;DHT22;10682;50.874;3.656;2022-12-07T15:50:45;5.70;99.90
21047;DHT22;10682;50.874;3.656;2022-12-07T15:53:12;5.70;99.90
21047;DHT22;10682;50.874;3.656;2022-12-07T15:55:39;5.70;99.90
21047;DHT22;10682;50.874;3.656;2022-12-07T15:58:07;5.60;99.90
21047;DHT22;10682;50.874;3.656;2022-12-07T16:00:34;5.60;99.90
21047;DHT22;10682;50.874;3.656;2022-12-07T16:03:01;5.50;99.90
21047;DHT22;10682;50.874;3.656;2022-12-07T16:05:28;5.40;99.90
21047;DHT22;10682;50.874;3.656;2022-12-07T16:07:55;5.40;99.90
21047;DHT22;10682;50.874;3.656;2022-12-07T16:10:22;5.40;99.90
21047;DHT22;10682;50.874;3.656;2022-12-07T16:12:49;5.30;99.90
21047;DHT22;10682;50.874;3.656;2022-12-07T16:15:16;5.30;99.90
21047;DHT22;10682;50.874;3.656;2022-12-07T16:17:50;5.20;99.90
21047;DHT22;10682;50.874;3.656;2022-12-07T16:20:17;5.20;99.90
21047;DHT22;10682;50.874;3.656;2022-12-07T16:22:44;5.20;99.90
21047;DHT22;10682;50.874;3.656;2022-12-07T16:25:11;5.10;99.90
21047;DHT22;10682;50.874;3.656;2022-12-07T16:27:38;5.10;99.90
21047;DHT22;10682;50.874;3.656;2022-12-07T16:30:06;5.20;99.90
21047;DHT22;10682;50.874;3.656;2022-12-07T16:32:34;5.20;99.90
21047;DHT22;10682;50.874;3.656;2022-12-07T16:35:01;5.30;99.90
21047;DHT22;10682;50.874;3.656;2022-12-07T16:37:28;5.30;99.90
21047;DHT22;10682;50.874;3.656;2022-12-07T16:39:55;5.40;99.90
21047;DHT22;10682;50.874;3.656;2022-12-07T16:42:22;5.40;99.90
21047;DHT22;10682;50.874;3.656;2022-12-07T16:44:49;5.40;99.90
21047;DHT22;10682;50.874;3.656;2022-12-07T16:47:16;5.40;99.90
21047;DHT22;10682;50.874;3.656;2022-12-07T16:49:43;5.50;99.90
21047;DHT22;10682;50.874;3.656;2022-12-07T16:52:10;5.50;99.90
21047;DHT22;10682;50.874;3.656;2022-12-07T16:54:49;5.40;99.90
21047;DHT22;10682;50.874;3.656;2022-12-07T16:57:17;5.40;99.90
21047;DHT22;10682;50.874;3.656;2022-12-07T16:59:49;5.40;99.90
21047;DHT22;10682;50.874;3.656;2022-12-07T17:02:17;5.40;99.90
21047;DHT22;10682;50.874;3.656;2022-12-07T17:04:45;5.40;99.90
21047;DHT22;10682;50.874;3.656;2022-12-07T17:07:12;5.40;99.90
21047;DHT22;10682;50.874;3.656;2022-12-07T17:09:39;5.40;99.90
21047;DHT22;10682;50.874;3.656;2022-12-07T17:12:06;5.30;99.90
21047;DHT22;10682;50.874;3.656;2022-12-07T17:14:33;5.30;99.90
21047;DHT22;10682;50.874;3.656;2022-12-07T17:17:19;5.30;99.90
21047;DHT22;10682;50.874;3.656;2022-12-07T17:19:46;5.30;99.90
21047;DHT22;10682;50.874;3.656;2022-12-07T17:22:13;5.30;99.90
21047;DHT22;10682;50.874;3.656;2022-12-07T17:24:41;5.20;99.90
21047;DHT22;10682;50.874;3.656;2022-12-07T17:27:08;5.20;99.90
21047;DHT22;10682;50.874;3.656;2022-12-07T17:29:35;5.30;99.90
21047;DHT22;10682;50.874;3.656;2022-12-07T17:32:02;5.30;99.90
21047;DHT22;10682;50.874;3.656;2022-12-07T17:34:29;5.20;99.90
21047;DHT22;10682;50.874;3.656;2022-12-07T17:36:56;5.30;99.90
21047;DHT22;10682;50.874;3.656;2022-12-07T17:39:23;5.30;99.90
21047;DHT22;10682;50.874;3.656;2022-12-07T17:41:50;5.20;99.90
21047;DHT22;10682;50.874;3.656;2022-12-07T17:44:36;5.30;99.90
21047;DHT22;10682;50.874;3.656;2022-12-07T17:47:03;5.20;99.90
21047;DHT22;10682;50.874;3.656;2022-12-07T17:49:31;5.20;99.90
21047;DHT22;10682;50.874;3.656;2022-12-07T17:51:58;5.20;99.90
21047;DHT22;10682;50.874;3.656;2022-12-07T17:54:43;5.20;99.90
21047;DHT22;10682;50.874;3.656;2022-12-07T17:57:10;5.10;99.90
21047;DHT22;10682;50.874;3.656;2022-12-07T17:59:37;5.10;99.90
21047;DHT22;10682;50.874;3.656;2022-12-07T18:02:04;5.00;99.90
21047;DHT22;10682;50.874;3.656;2022-12-07T18:04:32;5.00;99.90
21047;DHT22;10682;50.874;3.656;2022-12-07T18:06:59;4.90;99.90
21047;DHT22;10682;50.874;3.656;2022-12-07T18:09:26;4.90;99.90
21047;DHT22;10682;50.874;3.656;2022-12-07T18:11:53;4.90;99.90
21047;DHT22;10682;50.874;3.656;2022-12-07T18:14:20;4.90;99.90
21047;DHT22;10682;50.874;3.656;2022-12-07T18:16:47;4.90;99.90
21047;DHT22;10682;50.874;3.656;2022-12-07T18:19:16;4.90;99.90
21047;DHT22;10682;50.874;3.656;2022-12-07T18:21:43;4.90;99.90
21047;DHT22;10682;50.874;3.656;2022-12-07T18:24:13;5.00;99.90